Conway, MO (65632)

12:52 PM CST on February 12, 2016 (GMT -0600)
S. Newport, Conway | | Change Station
CLOSE
Current Station
Personal Weather Station
Location: Conway, MO
Elevation: 1394 ft
Nearby Weather Stations

Elev 1394 ft 37.50 °N, 92.83 °W | Updated 46 seconds ago

Clear
Clear
47.1 °F
Feels Like 46 °F
N
3.8
Wind Variable Wind from East
Gusts 10.7 mph

Today
High -- | Low -- °F
--% Chance of Precip.
Yesterday
High -- | Low -- °F
Precip. -- in
Pressure 30.34 in
Visibility 10.0 miles
Clouds Few 2600 ft
Windchill 46 °F
Dew Point 27 °F
Humidity 45%
Rainfall 0.00 in
Snow Depth Not available.
7:04 AM 5:46 PM
Waxing Crescent, 22% visible
METAR KTBN 121658Z AUTO 35011G21KT 10SM FEW026 03/M05 A3030 RMK AO2 SLP273 T00281054
Pressure 30.34 in
Visibility 10.0 miles
Clouds Few 2600 ft
Windchill 46 °F
Dew Point 27 °F
Humidity 45%
Rainfall 0.00 in
Snow Depth Not available.
7:04 AM 5:46 PM
Waxing Crescent, 22% visible
METAR KTBN 121658Z AUTO 35011G21KT 10SM FEW026 03/M05 A3030 RMK AO2 SLP273 T00281054

10-Day Weather Forecast

Almanac

Astronomy

Feb. 12, 2016 Rise Set
Actual Time
Civil Twilight
Nautical Twilight
Astronomical Twilight
Moon
Length of Visible Light
Length of Day
Tomorrow will be .
, % of the Moon is Illuminated

Today's Extremes

State Highs State Lows

Community

WunderPhotos

Upload Photos

1,892,369 photos uploaded!

WunderBlog® & News

Nearby

Air Quality

  Air Quality AQ Index Pollutant
Not available.

Snow Depth

Station Depth Elevation

Earthquake Activity

City Distance Mag. Time & Date
Minimum magnitude displayed is 2.5.

Coastal Water Temperatures

Place Temperature

Stations

Nearby Weather Stations

Station Location Temp. Windchill Dew Point Humidity Wind Precip. Elev Updated Type
                   

Watches & Warnings

There are currently no watches in effect.